JST737 YMML-YMLT
Flight info
| Callsign | JST737 |
|---|---|
| Flight time | 0h 47m |
| Altitude | 35000 |
| Route | SUNTI4/34 SUNTI H169 IRSOM W105 LT |
| Aircraft | A320/M-SDE3FGHIRWYZ/LB1 |
Departure
| Time | 2026-04-25 04:59 |
|---|---|
| Airport | Melbourne Airport (YMML) |
Arrival
| Time | 2026-04-25 05:46 |
|---|---|
| Airport | Launceston Airport (YMLT) |
| Time | Latitude | Longitude | Altitude | Speed | Heading |
|---|---|---|---|---|---|
| 2026-04-25 04:08 | -37.67525 | 144.84742 | 380 ft | 0 kts | 171° |
| 2026-04-25 04:50 | -37.67514 | 144.84740 | 380 ft | 4 kts | 172° |
| 2026-04-25 04:50 | -37.67487 | 144.84735 | 380 ft | 4 kts | 177° |
| 2026-04-25 04:50 | -37.67462 | 144.84738 | 381 ft | 4 kts | 211° |
| 2026-04-25 04:51 | -37.67452 | 144.84750 | 381 ft | 1 kts | 261° |
| 2026-04-25 04:51 | -37.67455 | 144.84723 | 381 ft | 4 kts | 261° |
| 2026-04-25 04:51 | -37.67459 | 144.84690 | 381 ft | 4 kts | 261° |
| 2026-04-25 04:51 | -37.67462 | 144.84669 | 381 ft | 0 kts | 261° |
| 2026-04-25 04:53 | -37.67462 | 144.84668 | 381 ft | 1 kts | 261° |
| 2026-04-25 04:54 | -37.67463 | 144.84644 | 380 ft | 7 kts | 269° |
| 2026-04-25 04:54 | -37.67463 | 144.84567 | 379 ft | 11 kts | 270° |
| 2026-04-25 04:54 | -37.67468 | 144.84456 | 378 ft | 15 kts | 261° |
| 2026-04-25 04:54 | -37.67485 | 144.84313 | 375 ft | 19 kts | 261° |
| 2026-04-25 04:55 | -37.67526 | 144.84144 | 370 ft | 22 kts | 221° |
| 2026-04-25 04:55 | -37.67686 | 144.84150 | 367 ft | 25 kts | 171° |
| 2026-04-25 04:55 | -37.67818 | 144.84175 | 365 ft | 12 kts | 172° |
| 2026-04-25 04:55 | -37.67873 | 144.84120 | 360 ft | 8 kts | 261° |
| 2026-04-25 04:56 | -37.67873 | 144.84115 | 363 ft | 0 kts | 261° |
| 2026-04-25 04:56 | -37.67874 | 144.84107 | 361 ft | 0 kts | 263° |
| 2026-04-25 04:57 | -37.67876 | 144.84088 | 357 ft | 5 kts | 263° |
| 2026-04-25 04:57 | -37.67883 | 144.84025 | 359 ft | 10 kts | 263° |
| 2026-04-25 04:57 | -37.67855 | 144.83962 | 358 ft | 7 kts | 355° |
| 2026-04-25 04:57 | -37.67839 | 144.83960 | 360 ft | 0 kts | 351° |
| 2026-04-25 04:58 | -37.67764 | 144.83945 | 361 ft | 37 kts | 351° |
| 2026-04-25 04:58 | -37.67288 | 144.83856 | 376 ft | 98 kts | 352° |
| 2026-04-25 04:58 | -37.66455 | 144.83699 | 427 ft | 139 kts | 351° |
| 2026-04-25 04:58 | -37.65499 | 144.83523 | 929 ft | 141 kts | 351° |
| 2026-04-25 04:59 | -37.64526 | 144.83341 | 1464 ft | 141 kts | 351° |
| 2026-04-25 04:59 | -37.63552 | 144.83152 | 2067 ft | 143 kts | 352° |
| 2026-04-25 04:59 | -37.62509 | 144.82950 | 2400 ft | 162 kts | 352° |
| 2026-04-25 04:59 | -37.61310 | 144.82717 | 2720 ft | 186 kts | 352° |
| 2026-04-25 05:00 | -37.59964 | 144.82460 | 3054 ft | 210 kts | 353° |
| 2026-04-25 05:00 | -37.58437 | 144.82683 | 3563 ft | 236 kts | 20° |
| 2026-04-25 05:00 | -37.56912 | 144.83587 | 4317 ft | 247 kts | 22° |
| 2026-04-25 05:00 | -37.55342 | 144.84557 | 5207 ft | 253 kts | 23° |
| 2026-04-25 05:01 | -37.53791 | 144.85669 | 6044 ft | 263 kts | 36° |
| 2026-04-25 05:01 | -37.52664 | 144.87564 | 6823 ft | 283 kts | 62° |
| 2026-04-25 05:01 | -37.52303 | 144.90051 | 7609 ft | 297 kts | 90° |
| 2026-04-25 05:01 | -37.52675 | 144.92626 | 8428 ft | 306 kts | 110° |
| 2026-04-25 05:02 | -37.53837 | 144.94886 | 9235 ft | 311 kts | 136° |
| 2026-04-25 05:02 | -37.55645 | 144.96362 | 10036 ft | 312 kts | 161° |
| 2026-04-25 05:02 | -37.57770 | 144.96937 | 10494 ft | 323 kts | 180° |
| 2026-04-25 05:02 | -37.60095 | 144.97032 | 10732 ft | 344 kts | 182° |
| 2026-04-25 05:03 | -37.62534 | 144.97069 | 11248 ft | 353 kts | 182° |
| 2026-04-25 05:03 | -37.65006 | 144.97089 | 11908 ft | 357 kts | 182° |
| 2026-04-25 05:03 | -37.67509 | 144.97111 | 12586 ft | 361 kts | 182° |
| 2026-04-25 05:03 | -37.70044 | 144.97143 | 13194 ft | 368 kts | 181° |
| 2026-04-25 05:04 | -37.72673 | 144.97183 | 13453 ft | 384 kts | 181° |
| 2026-04-25 05:04 | -37.75375 | 144.97230 | 13998 ft | 391 kts | 181° |
| 2026-04-25 05:04 | -37.78081 | 144.97281 | 14559 ft | 395 kts | 181° |
| 2026-04-25 05:04 | -37.80850 | 144.97333 | 15115 ft | 399 kts | 181° |
| 2026-04-25 05:05 | -37.83639 | 144.97386 | 15688 ft | 402 kts | 181° |
| 2026-04-25 05:05 | -37.86441 | 144.97442 | 16287 ft | 404 kts | 182° |
| 2026-04-25 05:05 | -37.89264 | 144.97499 | 16906 ft | 406 kts | 182° |
| 2026-04-25 05:05 | -37.92102 | 144.97560 | 17534 ft | 408 kts | 182° |
| 2026-04-25 05:06 | -37.94951 | 144.97619 | 18167 ft | 410 kts | 182° |
| 2026-04-25 05:06 | -37.97775 | 144.97963 | 18754 ft | 416 kts | 172° |
| 2026-04-25 05:06 | -38.00584 | 144.98936 | 19320 ft | 422 kts | 163° |
| 2026-04-25 05:06 | -38.03364 | 145.00173 | 19883 ft | 424 kts | 163° |
| 2026-04-25 05:07 | -38.06141 | 145.01411 | 20436 ft | 427 kts | 163° |
| 2026-04-25 05:07 | -38.08967 | 145.02671 | 20975 ft | 429 kts | 163° |
| 2026-04-25 05:07 | -38.11796 | 145.03930 | 21475 ft | 432 kts | 163° |
| 2026-04-25 05:07 | -38.14650 | 145.05200 | 21944 ft | 435 kts | 163° |
| 2026-04-25 05:08 | -38.17529 | 145.06482 | 22408 ft | 438 kts | 163° |
| 2026-04-25 05:08 | -38.20415 | 145.07766 | 22855 ft | 441 kts | 163° |
| 2026-04-25 05:08 | -38.23287 | 145.09042 | 23266 ft | 445 kts | 163° |
| 2026-04-25 05:08 | -38.26230 | 145.10351 | 23688 ft | 448 kts | 163° |
| 2026-04-25 05:09 | -38.29191 | 145.11672 | 24061 ft | 451 kts | 163° |
| 2026-04-25 05:09 | -38.32169 | 145.13003 | 24418 ft | 454 kts | 162° |
| 2026-04-25 05:09 | -38.35155 | 145.14340 | 24767 ft | 456 kts | 162° |
| 2026-04-25 05:09 | -38.38127 | 145.15673 | 25109 ft | 458 kts | 162° |
| 2026-04-25 05:10 | -38.41154 | 145.17030 | 25455 ft | 460 kts | 162° |
| 2026-04-25 05:10 | -38.44155 | 145.18373 | 25796 ft | 462 kts | 163° |
| 2026-04-25 05:10 | -38.47207 | 145.19738 | 26133 ft | 464 kts | 163° |
| 2026-04-25 05:10 | -38.50264 | 145.21112 | 26470 ft | 466 kts | 162° |
| 2026-04-25 05:11 | -38.53339 | 145.22492 | 26809 ft | 468 kts | 163° |
| 2026-04-25 05:11 | -38.56426 | 145.23859 | 27145 ft | 470 kts | 163° |
| 2026-04-25 05:11 | -38.59494 | 145.25204 | 27469 ft | 472 kts | 163° |
| 2026-04-25 05:12 | -38.65744 | 145.27934 | 28120 ft | 476 kts | 163° |
| 2026-04-25 05:12 | -38.68886 | 145.29310 | 28541 ft | 476 kts | 163° |
| 2026-04-25 05:12 | -38.72028 | 145.30694 | 28992 ft | 475 kts | 163° |
| 2026-04-25 05:12 | -38.75125 | 145.32064 | 29449 ft | 474 kts | 163° |
| 2026-04-25 05:13 | -38.78239 | 145.33445 | 29909 ft | 473 kts | 163° |
| 2026-04-25 05:13 | -38.81351 | 145.34828 | 30366 ft | 472 kts | 163° |
| 2026-04-25 05:13 | -38.84458 | 145.36208 | 30752 ft | 471 kts | 163° |
| 2026-04-25 05:13 | -38.86510 | 145.37119 | 31011 ft | 471 kts | 163° |
| 2026-04-25 05:14 | -38.89624 | 145.38497 | 31222 ft | 472 kts | 163° |
| 2026-04-25 05:14 | -38.92754 | 145.39885 | 31263 ft | 478 kts | 163° |
| 2026-04-25 05:15 | -39.02217 | 145.44095 | 31260 ft | 481 kts | 163° |
| 2026-04-25 05:15 | -39.08537 | 145.46915 | 31258 ft | 481 kts | 163° |
| 2026-04-25 05:16 | -39.14873 | 145.49745 | 31266 ft | 481 kts | 163° |
| 2026-04-25 05:16 | -39.21160 | 145.52563 | 31257 ft | 481 kts | 163° |
| 2026-04-25 05:17 | -39.27492 | 145.55400 | 31259 ft | 481 kts | 163° |
| 2026-04-25 05:17 | -39.33817 | 145.58246 | 31260 ft | 481 kts | 163° |
| 2026-04-25 05:18 | -39.40151 | 145.61098 | 31259 ft | 481 kts | 163° |
| 2026-04-25 05:18 | -39.46473 | 145.63946 | 31258 ft | 481 kts | 163° |
| 2026-04-25 05:19 | -39.52791 | 145.66803 | 31256 ft | 481 kts | 163° |
| 2026-04-25 05:19 | -39.59085 | 145.69655 | 31263 ft | 481 kts | 163° |
| 2026-04-25 05:20 | -39.65428 | 145.72543 | 31258 ft | 481 kts | 163° |
| 2026-04-25 05:20 | -39.71747 | 145.75411 | 31260 ft | 481 kts | 163° |
| 2026-04-25 05:21 | -39.78042 | 145.78270 | 31276 ft | 481 kts | 163° |
| 2026-04-25 05:21 | -39.84210 | 145.81692 | 31262 ft | 485 kts | 154° |
| 2026-04-25 05:22 | -39.90169 | 145.85816 | 31263 ft | 485 kts | 154° |
| 2026-04-25 05:22 | -39.96145 | 145.89962 | 31265 ft | 485 kts | 154° |
| 2026-04-25 05:23 | -40.02110 | 145.94112 | 31271 ft | 485 kts | 154° |
| 2026-04-25 05:23 | -40.08043 | 145.98253 | 31265 ft | 486 kts | 154° |
| 2026-04-25 05:24 | -40.14014 | 146.02430 | 31260 ft | 486 kts | 154° |
| 2026-04-25 05:24 | -40.19972 | 146.06606 | 31261 ft | 486 kts | 154° |
| 2026-04-25 05:25 | -40.25936 | 146.10795 | 31263 ft | 486 kts | 154° |
| 2026-04-25 05:25 | -40.31905 | 146.14985 | 31264 ft | 487 kts | 154° |
| 2026-04-25 05:26 | -40.37883 | 146.19187 | 31257 ft | 487 kts | 154° |
| 2026-04-25 05:26 | -40.43822 | 146.23369 | 31262 ft | 487 kts | 154° |
| 2026-04-25 05:27 | -40.49799 | 146.27608 | 31261 ft | 487 kts | 154° |
| 2026-04-25 05:27 | -40.55781 | 146.31861 | 31263 ft | 487 kts | 154° |
| 2026-04-25 05:28 | -40.61736 | 146.36088 | 31264 ft | 488 kts | 154° |
| 2026-04-25 05:28 | -40.67711 | 146.40341 | 31264 ft | 488 kts | 154° |
| 2026-04-25 05:29 | -40.73679 | 146.44595 | 30917 ft | 489 kts | 154° |
| 2026-04-25 05:29 | -40.76674 | 146.46733 | 30677 ft | 489 kts | 154° |
| 2026-04-25 05:29 | -40.79666 | 146.48862 | 29885 ft | 490 kts | 155° |
| 2026-04-25 05:29 | -40.82701 | 146.51019 | 28549 ft | 498 kts | 154° |
| 2026-04-25 05:30 | -40.85738 | 146.53188 | 27363 ft | 500 kts | 154° |
| 2026-04-25 05:30 | -40.88815 | 146.55397 | 26515 ft | 497 kts | 154° |
| 2026-04-25 05:30 | -40.91832 | 146.57578 | 25780 ft | 491 kts | 154° |
| 2026-04-25 05:30 | -40.94789 | 146.59714 | 25002 ft | 487 kts | 154° |
| 2026-04-25 05:31 | -40.97794 | 146.61881 | 24201 ft | 484 kts | 154° |
| 2026-04-25 05:31 | -41.00705 | 146.63977 | 23370 ft | 480 kts | 154° |
| 2026-04-25 05:31 | -41.03624 | 146.66081 | 22611 ft | 475 kts | 154° |
| 2026-04-25 05:31 | -41.06516 | 146.68163 | 21843 ft | 470 kts | 154° |
| 2026-04-25 05:32 | -41.09388 | 146.70232 | 21091 ft | 465 kts | 154° |
| 2026-04-25 05:32 | -41.12225 | 146.72283 | 20360 ft | 461 kts | 154° |
| 2026-04-25 05:32 | -41.15032 | 146.74314 | 19651 ft | 458 kts | 154° |
| 2026-04-25 05:32 | -41.17820 | 146.76332 | 18964 ft | 455 kts | 154° |
| 2026-04-25 05:33 | -41.20588 | 146.78340 | 18266 ft | 452 kts | 154° |
| 2026-04-25 05:33 | -41.23307 | 146.80313 | 17620 ft | 448 kts | 153° |
| 2026-04-25 05:33 | -41.26036 | 146.82294 | 16981 ft | 444 kts | 154° |
| 2026-04-25 05:33 | -41.28739 | 146.84258 | 16352 ft | 442 kts | 153° |
| 2026-04-25 05:34 | -41.31440 | 146.86224 | 15696 ft | 441 kts | 153° |
| 2026-04-25 05:34 | -41.34114 | 146.88172 | 15269 ft | 430 kts | 153° |
| 2026-04-25 05:34 | -41.36643 | 146.90022 | 15103 ft | 400 kts | 153° |
| 2026-04-25 05:34 | -41.38999 | 146.91751 | 14606 ft | 384 kts | 153° |
| 2026-04-25 05:35 | -41.41309 | 146.93515 | 13968 ft | 384 kts | 148° |
| 2026-04-25 05:35 | -41.43493 | 146.95575 | 13415 ft | 384 kts | 146° |
| 2026-04-25 05:35 | -41.45647 | 146.97629 | 13021 ft | 378 kts | 146° |
| 2026-04-25 05:35 | -41.47797 | 146.99681 | 12545 ft | 376 kts | 146° |
| 2026-04-25 05:36 | -41.49884 | 147.01677 | 12215 ft | 370 kts | 146° |
| 2026-04-25 05:36 | -41.51963 | 147.03668 | 11692 ft | 363 kts | 146° |
| 2026-04-25 05:36 | -41.54005 | 147.05623 | 10935 ft | 359 kts | 146° |
| 2026-04-25 05:36 | -41.56027 | 147.07561 | 10300 ft | 352 kts | 146° |
| 2026-04-25 05:37 | -41.57949 | 147.09408 | 10115 ft | 331 kts | 146° |
| 2026-04-25 05:37 | -41.59788 | 147.11176 | 9661 ft | 321 kts | 147° |
| 2026-04-25 05:37 | -41.61590 | 147.12908 | 9529 ft | 318 kts | 147° |
| 2026-04-25 05:37 | -41.63394 | 147.14642 | 9175 ft | 323 kts | 147° |
| 2026-04-25 05:38 | -41.65219 | 147.16391 | 8881 ft | 319 kts | 147° |
| 2026-04-25 05:38 | -41.67007 | 147.18109 | 8289 ft | 317 kts | 147° |
| 2026-04-25 05:38 | -41.68814 | 147.19847 | 7463 ft | 321 kts | 147° |
| 2026-04-25 05:38 | -41.70620 | 147.21585 | 6825 ft | 318 kts | 147° |
| 2026-04-25 05:39 | -41.72406 | 147.23311 | 6360 ft | 308 kts | 147° |
| 2026-04-25 05:39 | -41.74058 | 147.24912 | 6283 ft | 286 kts | 147° |
| 2026-04-25 05:39 | -41.75490 | 147.26572 | 6198 ft | 263 kts | 128° |
| 2026-04-25 05:39 | -41.76258 | 147.28743 | 6083 ft | 255 kts | 98° |
| 2026-04-25 05:40 | -41.76226 | 147.31037 | 5848 ft | 244 kts | 70° |
| 2026-04-25 05:40 | -41.75451 | 147.33030 | 5393 ft | 241 kts | 42° |
| 2026-04-25 05:40 | -41.74198 | 147.34438 | 4989 ft | 231 kts | 30° |
| 2026-04-25 05:40 | -41.72828 | 147.35366 | 4604 ft | 212 kts | 5° |
| 2026-04-25 05:41 | -41.71437 | 147.35354 | 4325 ft | 189 kts | 340° |
| 2026-04-25 05:41 | -41.70312 | 147.34661 | 4081 ft | 171 kts | 322° |
| 2026-04-25 05:41 | -41.69353 | 147.33829 | 3842 ft | 162 kts | 323° |
| 2026-04-25 05:41 | -41.68429 | 147.33038 | 3631 ft | 149 kts | 323° |
| 2026-04-25 05:42 | -41.67594 | 147.32327 | 3448 ft | 137 kts | 323° |
| 2026-04-25 05:42 | -41.66796 | 147.31643 | 3250 ft | 135 kts | 324° |
| 2026-04-25 05:42 | -41.66011 | 147.30968 | 3069 ft | 134 kts | 325° |
| 2026-04-25 05:42 | -41.65237 | 147.30305 | 2891 ft | 133 kts | 326° |
| 2026-04-25 05:43 | -41.64456 | 147.29636 | 2710 ft | 135 kts | 326° |
| 2026-04-25 05:43 | -41.63668 | 147.28960 | 2526 ft | 135 kts | 326° |
| 2026-04-25 05:43 | -41.62888 | 147.28289 | 2351 ft | 133 kts | 327° |
| 2026-04-25 05:43 | -41.62118 | 147.27628 | 2166 ft | 132 kts | 328° |
| 2026-04-25 05:44 | -41.61339 | 147.26962 | 1995 ft | 133 kts | 328° |
| 2026-04-25 05:44 | -41.60560 | 147.26293 | 1821 ft | 133 kts | 326° |
| 2026-04-25 05:44 | -41.59788 | 147.25629 | 1649 ft | 132 kts | 328° |
| 2026-04-25 05:44 | -41.59007 | 147.24959 | 1463 ft | 132 kts | 329° |
| 2026-04-25 05:45 | -41.58252 | 147.24311 | 1304 ft | 131 kts | 329° |
| 2026-04-25 05:45 | -41.57475 | 147.23647 | 1110 ft | 136 kts | 330° |
| 2026-04-25 05:45 | -41.56687 | 147.22967 | 951 ft | 134 kts | 331° |
| 2026-04-25 05:45 | -41.55927 | 147.22308 | 807 ft | 130 kts | 329° |
| 2026-04-25 05:46 | -41.55156 | 147.21654 | 627 ft | 130 kts | 328° |
| 2026-04-25 05:46 | -41.54452 | 147.21055 | 595 ft | 103 kts | 328° |
| 2026-04-25 05:46 | -41.53992 | 147.20662 | 591 ft | 53 kts | 327° |
| 2026-04-25 05:46 | -41.53809 | 147.20505 | 593 ft | 20 kts | 327° |
| 2026-04-25 05:47 | -41.53737 | 147.20387 | 596 ft | 14 kts | 258° |
| 2026-04-25 05:47 | -41.53827 | 147.20331 | 591 ft | 13 kts | 161° |
| 2026-04-25 05:47 | -41.53919 | 147.20406 | 588 ft | 18 kts | 147° |
| 2026-04-25 05:47 | -41.54034 | 147.20505 | 585 ft | 21 kts | 147° |
| 2026-04-25 05:48 | -41.54156 | 147.20607 | 583 ft | 13 kts | 147° |
| 2026-04-25 05:48 | -41.54226 | 147.20671 | 584 ft | 11 kts | 146° |
| 2026-04-25 05:48 | -41.54273 | 147.20680 | 583 ft | 5 kts | 234° |
| 2026-04-25 05:48 | -41.54269 | 147.20652 | 583 ft | 3 kts | 298° |
| 2026-04-25 05:49 | -41.54263 | 147.20636 | 583 ft | 0 kts | 296° |